Time;durP1;ratioP1;P1;durP2;ratioP2;P2;SDS_P1;SDS_P2;PMS_P1;PMS_P2;Temp;Humidity;BMP_temperature;BMP_pressure;BME280_temperature;BME280_humidity;BME280_pressure;Samples;Min_cycle;Max_cycle;Signal;HPM_P1;HPM_P2
2024/01/11 00:01:09;;;;;;;48.17;26.50;;;115.30;2176.00;;;;;;5065862;28;20167;-61
2024/01/11 00:03:35;;;;;;;95.82;42.22;;;115.70;2176.00;;;;;;5061329;28;20108;-60
2024/01/11 00:06:01;;;;;;;75.65;36.58;;;115.90;2176.00;;;;;;5071859;28;20555;-60
2024/01/11 00:08:26;;;;;;;51.15;27.35;;;115.90;2176.00;;;;;;5065699;28;20446;-61
2024/01/11 00:10:52;;;;;;;48.50;27.15;;;116.00;2176.00;;;;;;5064865;28;20036;-59
2024/01/11 00:13:18;;;;;;;52.10;28.35;;;141.00;2176.00;;;;;;5058094;28;20028;-60
2024/01/11 00:15:44;;;;;;;83.68;41.33;;;141.00;2176.00;;;;;;5060213;28;20100;-60
2024/01/11 00:18:09;;;;;;;109.25;50.25;;;116.10;2176.00;;;;;;5059213;28;20021;-60
2024/01/11 00:20:35;;;;;;;121.45;54.97;;;116.10;2176.00;;;;;;5051293;28;20027;-59
2024/01/11 00:23:01;;;;;;;106.60;51.75;;;116.00;2176.00;;;;;;5053852;28;20036;-61
2024/01/11 00:25:27;;;;;;;62.80;29.90;;;115.90;2176.00;;;;;;5058177;28;20028;-61
2024/01/11 00:27:53;;;;;;;55.55;30.23;;;140.80;2176.00;;;;;;5062509;28;20036;-61
2024/01/11 00:30:18;;;;;;;60.30;30.98;;;116.00;2176.00;;;;;;5064530;28;20032;-61
2024/01/11 00:32:44;;;;;;;76.63;35.30;;;115.80;2176.00;;;;;;5058607;28;20036;-61
2024/01/11 00:35:10;;;;;;;70.05;36.63;;;116.10;2176.00;;;;;;5059954;28;20108;-59
2024/01/11 00:37:36;;;;;;;78.25;40.80;;;140.90;2176.00;;;;;;5062704;28;20546;-59
2024/01/11 00:40:02;;;;;;;77.53;35.47;;;141.00;2176.00;;;;;;5063781;28;20044;-58
2024/01/11 00:42:27;;;;;;;72.40;34.45;;;141.10;2176.00;;;;;;5057901;28;20029;-58
2024/01/11 00:44:53;;;;;;;64.85;32.83;;;141.20;2176.00;;;;;;5059211;28;20094;-60
2024/01/11 00:47:19;;;;;;;70.78;36.65;;;141.30;2176.00;;;;;;5056065;28;20183;-62
2024/01/11 00:49:44;;;;;;;75.47;40.25;;;141.30;2176.00;;;;;;5059798;28;20029;-61
2024/01/11 00:52:13;;;;;;;73.47;39.45;;;141.30;2176.00;;;;;;5065645;28;20063;-60
2024/01/11 00:54:39;;;;;;;68.47;36.13;;;141.30;2176.00;;;;;;5057378;28;20024;-60
2024/01/11 00:57:05;;;;;;;72.43;34.92;;;141.70;2176.00;;;;;;5052972;28;20082;-60
2024/01/11 00:59:30;;;;;;;61.00;30.73;;;141.70;2176.00;;;;;;5059243;28;20154;-60
2024/01/11 01:01:56;;;;;;;55.22;26.70;;;141.60;2176.00;;;;;;5056745;28;20154;-61
2024/01/11 01:04:22;;;;;;;58.00;33.60;;;166.40;2176.00;;;;;;5062157;28;20028;-59
2024/01/11 01:06:48;;;;;;;50.17;23.98;;;141.60;2176.00;;;;;;5057149;28;20025;-62
2024/01/11 01:09:13;;;;;;;42.15;23.25;;;141.30;2176.00;;;;;;5059367;28;20029;-60
2024/01/11 01:11:39;;;;;;;46.72;27.92;;;141.10;2176.00;;;;;;5055708;28;20074;-60
2024/01/11 01:14:05;;;;;;;41.92;22.42;;;141.00;2176.00;;;;;;5059389;28;20372;-59
2024/01/11 01:16:31;;;;;;;38.95;20.73;;;141.00;2176.00;;;;;;5061112;28;20482;-60
2024/01/11 01:18:56;;;;;;;82.90;38.65;;;141.00;2176.00;;;;;;5056403;28;20143;-58
2024/01/11 01:21:22;;;;;;;46.88;24.60;;;141.00;2176.00;;;;;;5059136;28;20028;-61
2024/01/11 01:23:48;;;;;;;50.88;23.67;;;140.90;2176.00;;;;;;5062153;28;20107;-59
2024/01/11 01:26:14;;;;;;;52.55;25.75;;;140.90;2176.00;;;;;;5051628;28;20028;-59
2024/01/11 01:28:40;;;;;;;47.45;20.98;;;140.80;2176.00;;;;;;5065943;28;20036;-57
2024/01/11 01:31:06;;;;;;;34.35;17.73;;;116.10;2176.00;;;;;;5061695;28;20072;-60
2024/01/11 01:33:31;;;;;;;37.05;22.13;;;116.00;2176.00;;;;;;5069765;28;20028;-60
2024/01/11 01:35:57;;;;;;;30.67;18.60;;;116.10;2176.00;;;;;;5061912;28;20458;-59
2024/01/11 01:38:23;;;;;;;29.73;16.13;;;140.80;2176.00;;;;;;5055632;28;20036;-59
2024/01/11 01:40:49;;;;;;;40.58;19.60;;;141.20;2176.00;;;;;;5060039;28;20052;-60
2024/01/11 01:43:15;;;;;;;54.17;27.25;;;141.40;2176.00;;;;;;5069915;28;20474;-59
2024/01/11 01:45:40;;;;;;;57.92;30.50;;;141.60;2176.00;;;;;;5080212;28;20020;-60
2024/01/11 01:48:07;;;;;;;51.10;26.15;;;141.70;2176.00;;;;;;5073144;28;20054;-59
2024/01/11 01:50:33;;;;;;;69.80;33.72;;;166.40;2176.00;;;;;;5069900;28;20032;-60
2024/01/11 01:53:00;;;;;;;44.03;23.92;;;141.60;2176.00;;;;;;5080222;28;20031;-60
2024/01/11 01:55:27;;;;;;;61.63;34.83;;;141.50;2176.00;;;;;;5070918;28;20073;-60
2024/01/11 01:57:54;;;;;;;43.90;23.10;;;141.40;2176.00;;;;;;5078539;28;20138;-60
2024/01/11 02:00:20;;;;;;;35.60;19.80;;;141.20;2176.00;;;;;;5068536;28;20033;-60
2024/01/11 02:02:50;;;;;;;31.45;16.42;;;141.10;2176.00;;;;;;5078476;28;20034;-60
2024/01/11 02:05:17;;;;;;;33.90;19.05;;;141.00;2176.00;;;;;;5076351;28;20427;-58
2024/01/11 02:07:44;;;;;;;46.33;22.70;;;141.10;2176.00;;;;;;5082214;28;20027;-59
2024/01/11 02:10:10;;;;;;;39.30;21.95;;;141.20;2176.00;;;;;;5072982;28;20031;-62
2024/01/11 02:12:37;;;;;;;56.40;25.95;;;141.20;2176.00;;;;;;5081030;28;20036;-59
2024/01/11 02:15:03;;;;;;;44.92;23.25;;;141.20;2176.00;;;;;;5072462;28;20025;-58
2024/01/11 02:17:32;;;;;;;51.33;28.88;;;141.00;2176.00;;;;;;5079254;28;20039;-59
2024/01/11 02:19:58;;;;;;;41.97;22.55;;;141.20;2176.00;;;;;;5068298;28;20021;-60
2024/01/11 02:22:32;;;;;;;44.70;17.50;;;141.10;2176.00;;;;;;5063422;28;20103;-59
2024/01/11 02:24:58;;;;;;;29.85;16.20;;;141.00;2176.00;;;;;;5086777;28;20110;-60
2024/01/11 02:27:24;;;;;;;29.85;15.80;;;140.80;2176.00;;;;;;5088011;28;20419;-59
2024/01/11 02:29:50;;;;;;;41.90;20.60;;;140.80;2176.00;;;;;;5086083;28;20051;-59
2024/01/11 02:32:15;;;;;;;48.20;24.23;;;141.40;2176.00;;;;;;5087621;28;20077;-60
2024/01/11 02:34:42;;;;;;;36.85;19.58;;;141.50;2176.00;;;;;;5085140;28;20139;-58
2024/01/11 02:37:08;;;;;;;32.58;16.70;;;141.50;2176.00;;;;;;5087211;28;20028;-59
2024/01/11 02:39:34;;;;;;;28.25;14.57;;;141.50;2176.00;;;;;;5083172;28;20062;-59
2024/01/11 02:42:00;;;;;;;28.67;16.00;;;141.50;2176.00;;;;;;5051511;28;20115;-60
2024/01/11 02:44:26;;;;;;;55.65;28.17;;;141.60;2176.00;;;;;;5057100;28;20029;-60
2024/01/11 02:46:52;;;;;;;27.80;12.68;;;141.40;2176.00;;;;;;5055116;28;20032;-61
2024/01/11 02:49:18;;;;;;;23.13;11.75;;;141.30;2176.00;;;;;;5069216;28;20017;-60
2024/01/11 02:51:43;;;;;;;20.83;12.05;;;141.30;2176.00;;;;;;5080670;28;20363;-59
2024/01/11 02:54:09;;;;;;;27.35;13.13;;;141.60;2176.00;;;;;;5083692;28;20095;-59
2024/01/11 02:56:35;;;;;;;24.73;13.35;;;141.70;2176.00;;;;;;5073273;28;20032;-58
2024/01/11 02:59:01;;;;;;;29.88;15.35;;;141.70;2176.00;;;;;;5070244;28;20024;-59
2024/01/11 03:01:27;;;;;;;39.63;18.38;;;141.50;2176.00;;;;;;5069749;28;20377;-60
2024/01/11 03:03:53;;;;;;;29.13;17.40;;;141.40;2176.00;;;;;;5062740;28;20031;-61
2024/01/11 03:06:21;;;;;;;57.15;30.25;;;141.50;2176.00;;;;;;5058727;28;20036;-59
2024/01/11 03:08:48;;;;;;;27.75;15.35;;;141.60;2176.00;;;;;;5069080;28;20031;-60
2024/01/11 03:11:14;;;;;;;29.10;16.77;;;141.60;2176.00;;;;;;5065541;28;20099;-58
2024/01/11 03:13:40;;;;;;;25.33;12.85;;;141.40;2176.00;;;;;;5070690;28;20429;-59
2024/01/11 03:16:06;;;;;;;27.48;13.98;;;166.40;2176.00;;;;;;5082777;28;20543;-59
2024/01/11 03:18:31;;;;;;;31.35;18.25;;;166.40;2176.00;;;;;;5073015;28;20021;-59
2024/01/11 03:20:57;;;;;;;48.78;24.08;;;141.70;2176.00;;;;;;5072532;28;20059;-58
2024/01/11 03:23:23;;;;;;;56.95;28.48;;;166.70;2176.00;;;;;;5072336;28;20024;-59
2024/01/11 03:25:49;;;;;;;47.63;24.30;;;166.90;2176.00;;;;;;5072281;28;20541;-59
2024/01/11 03:28:14;;;;;;;42.20;21.88;;;167.00;2176.00;;;;;;5072354;28;20036;-59
2024/01/11 03:30:40;;;;;;;38.80;17.63;;;167.00;2176.00;;;;;;5071797;28;20039;-59
2024/01/11 03:33:06;;;;;;;22.23;13.32;;;166.80;2176.00;;;;;;5072134;28;20035;-60
2024/01/11 03:35:32;;;;;;;25.15;12.88;;;166.70;2176.00;;;;;;5071951;28;20100;-59
2024/01/11 03:37:57;;;;;;;25.58;13.73;;;166.40;2176.00;;;;;;5072421;28;20107;-59
2024/01/11 03:40:23;;;;;;;29.85;16.70;;;166.50;2176.00;;;;;;5071731;28;20102;-59
2024/01/11 03:42:49;;;;;;;37.75;17.60;;;166.70;2176.00;;;;;;5072023;28;20028;-59
2024/01/11 03:45:19;;;;;;;32.92;17.92;;;166.90;2176.00;;;;;;5072097;28;20413;-59
2024/01/11 03:47:45;;;;;;;39.92;18.33;;;166.90;2176.00;;;;;;5072380;28;20024;-59
2024/01/11 03:50:10;;;;;;;36.87;18.13;;;167.00;2176.00;;;;;;5071551;28;20386;-59
2024/01/11 03:52:36;;;;;;;21.95;13.85;;;167.00;2176.00;;;;;;5071953;28;20037;-60
2024/01/11 03:55:03;;;;;;;23.75;12.55;;;166.90;2176.00;;;;;;5070671;28;20028;-59
2024/01/11 03:57:28;;;;;;;22.88;12.50;;;167.00;2176.00;;;;;;5071855;28;20032;-58
2024/01/11 03:59:54;;;;;;;26.98;15.02;;;167.00;2176.00;;;;;;5071924;28;20563;-58
2024/01/11 04:02:20;;;;;;;27.83;15.52;;;167.00;2176.00;;;;;;5071464;28;20501;-59
2024/01/11 04:04:46;;;;;;;30.35;16.83;;;167.10;2176.00;;;;;;5071834;28;20414;-58
2024/01/11 04:07:11;;;;;;;30.23;15.03;;;167.10;2176.00;;;;;;5071248;28;20025;-59
2024/01/11 04:09:38;;;;;;;36.75;17.15;;;167.20;2176.00;;;;;;5071802;28;20082;-59
2024/01/11 04:12:05;;;;;;;25.77;12.82;;;167.30;2176.00;;;;;;5071103;28;20085;-59
2024/01/11 04:14:31;;;;;;;23.33;10.73;;;167.20;2176.00;;;;;;5071166;28;20475;-59
2024/01/11 04:16:57;;;;;;;16.70;10.65;;;167.00;2176.00;;;;;;5071410;28;20027;-58
2024/01/11 04:19:22;;;;;;;21.58;11.55;;;166.90;2176.00;;;;;;5071253;28;20032;-60
2024/01/11 04:21:48;;;;;;;23.67;13.10;;;166.70;2176.00;;;;;;5071024;28;20498;-59
2024/01/11 04:24:14;;;;;;;25.92;12.95;;;166.90;2176.00;;;;;;5071151;28;20498;-60
2024/01/11 04:26:40;;;;;;;20.95;12.73;;;166.90;2176.00;;;;;;5070770;28;20021;-59
2024/01/11 04:29:06;;;;;;;30.85;14.13;;;166.70;2176.00;;;;;;5071361;28;20095;-59
2024/01/11 04:31:32;;;;;;;24.30;13.13;;;166.60;2176.00;;;;;;5070756;28;20490;-59
2024/01/11 04:33:57;;;;;;;24.93;13.00;;;166.60;2176.00;;;;;;5071183;28;20459;-58
2024/01/11 04:36:23;;;;;;;25.17;13.43;;;166.50;2176.00;;;;;;5070531;28;20028;-59
2024/01/11 04:38:49;;;;;;;25.83;13.18;;;166.50;2176.00;;;;;;5071503;28;20738;-59
2024/01/11 04:41:16;;;;;;;23.65;11.45;;;166.60;2176.00;;;;;;5070666;28;20491;-58
2024/01/11 04:43:43;;;;;;;24.75;11.10;;;166.50;2176.00;;;;;;5070950;28;20071;-60
2024/01/11 04:46:19;;;;;;;18.25;10.30;;;166.50;2176.00;;;;;;5071037;28;20567;-59
2024/01/11 04:48:46;;;;;;;20.75;10.73;;;166.60;2176.00;;;;;;5071268;28;20102;-60
2024/01/11 04:51:16;;;;;;;27.93;13.63;;;166.70;2176.00;;;;;;5070314;28;20082;-59
2024/01/11 04:53:43;;;;;;;22.65;11.90;;;166.70;2176.00;;;;;;5070607;28;20427;-61
2024/01/11 04:56:10;;;;;;;20.70;10.27;;;166.50;2176.00;;;;;;5070622;28;20429;-59
2024/01/11 04:58:38;;;;;;;21.38;11.80;;;166.60;2176.00;;;;;;5070971;28;20078;-58
2024/01/11 05:01:05;;;;;;;24.55;12.60;;;166.60;2176.00;;;;;;5070026;28;20032;-58
2024/01/11 05:03:31;;;;;;;24.42;13.40;;;166.80;2176.00;;;;;;5070514;28;20047;-59
2024/01/11 05:05:58;;;;;;;26.07;12.67;;;167.00;2176.00;;;;;;5069756;28;20024;-59
2024/01/11 05:08:25;;;;;;;31.97;15.03;;;166.90;2176.00;;;;;;5070543;28;20387;-59
2024/01/11 05:10:50;;;;;;;33.40;16.30;;;166.80;2176.00;;;;;;5069985;28;20035;-59
2024/01/11 05:13:18;;;;;;;34.17;18.33;;;167.00;2176.00;;;;;;5070588;28;20028;-58
2024/01/11 05:15:44;;;;;;;25.52;14.98;;;167.20;2176.00;;;;;;5070182;28;20048;-60
2024/01/11 05:18:10;;;;;;;26.93;11.70;;;167.00;2176.00;;;;;;5069931;28;20067;-61
2024/01/11 05:20:36;;;;;;;26.20;13.83;;;166.80;2176.00;;;;;;5070080;28;20025;-60
2024/01/11 05:23:02;;;;;;;24.95;11.90;;;166.80;2176.00;;;;;;5070120;28;20032;-59
2024/01/11 05:25:28;;;;;;;41.58;20.35;;;166.70;2176.00;;;;;;5069781;28;20056;-59
2024/01/11 05:27:53;;;;;;;52.22;24.75;;;166.60;2176.00;;;;;;5069939;28;20111;-58
2024/01/11 05:30:19;;;;;;;28.85;14.40;;;166.40;2176.00;;;;;;5069998;28;20063;-59
2024/01/11 05:32:45;;;;;;;18.00;7.80;;;166.50;2176.00;;;;;;5070392;28;20372;-59
2024/01/11 05:35:11;;;;;;;18.13;8.13;;;166.50;2176.00;;;;;;5069237;28;20486;-59
2024/01/11 05:37:36;;;;;;;17.57;9.03;;;141.70;2176.00;;;;;;5080060;28;20490;-59
2024/01/11 05:40:03;;;;;;;13.60;8.47;;;141.70;2176.00;;;;;;5069596;28;20039;-59
2024/01/11 05:42:29;;;;;;;17.37;8.10;;;166.50;2176.00;;;;;;5069577;28;20470;-58
2024/01/11 05:44:54;;;;;;;17.50;9.88;;;166.60;2176.00;;;;;;5069626;28;20116;-59
2024/01/11 05:47:20;;;;;;;20.73;11.95;;;166.60;2176.00;;;;;;5069519;28;20100;-59
2024/01/11 05:49:47;;;;;;;22.35;13.95;;;166.90;2176.00;;;;;;5069676;28;20034;-59
2024/01/11 05:52:13;;;;;;;26.48;13.75;;;167.10;2176.00;;;;;;5069198;28;20086;-59
2024/01/11 05:54:39;;;;;;;27.73;13.80;;;167.30;2176.00;;;;;;5070090;28;20032;-59
2024/01/11 05:57:05;;;;;;;25.20;13.37;;;192.00;2176.00;;;;;;5069523;28;20154;-59
2024/01/11 05:59:30;;;;;;;23.70;13.87;;;167.00;2176.00;;;;;;5069617;28;20111;-59
2024/01/11 06:02:00;;;;;;;24.37;14.53;;;166.90;2176.00;;;;;;5069255;28;20064;-59
2024/01/11 06:04:26;;;;;;;40.90;21.57;;;166.80;2176.00;;;;;;5070019;28;20020;-59
2024/01/11 06:06:52;;;;;;;33.47;18.80;;;167.00;2176.00;;;;;;5069161;28;20028;-59
2024/01/11 06:09:18;;;;;;;35.23;21.17;;;167.00;2176.00;;;;;;5069449;28;20028;-59
2024/01/11 06:11:43;;;;;;;30.55;14.93;;;167.10;2176.00;;;;;;5069093;28;20058;-58
2024/01/11 06:14:09;;;;;;;22.77;12.97;;;167.00;2176.00;;;;;;5069486;28;20025;-58
2024/01/11 06:16:35;;;;;;;49.10;28.20;;;166.90;2176.00;;;;;;5069450;28;20066;-58
2024/01/11 06:19:01;;;;;;;56.63;28.50;;;166.60;2176.00;;;;;;5068230;28;20452;-59
2024/01/11 06:21:26;;;;;;;38.33;18.33;;;166.50;2176.00;;;;;;5069204;28;20032;-58
2024/01/11 06:23:52;;;;;;;41.53;19.33;;;166.50;2176.00;;;;;;5069128;28;20020;-59
2024/01/11 06:26:18;;;;;;;33.22;19.10;;;166.50;2176.00;;;;;;5068986;28;20028;-58
2024/01/11 06:28:44;;;;;;;30.55;16.17;;;166.40;2176.00;;;;;;5069106;28;20021;-59
2024/01/11 06:31:10;;;;;;;28.23;12.77;;;141.70;2176.00;;;;;;5068934;28;20437;-59
2024/01/11 06:33:38;;;;;;;18.10;9.87;;;166.40;2176.00;;;;;;5069115;28;20024;-58
2024/01/11 06:36:07;;;;;;;24.70;13.03;;;141.70;2176.00;;;;;;5068853;28;20025;-60
2024/01/11 06:38:33;;;;;;;26.13;13.95;;;141.70;2176.00;;;;;;5069137;28;20020;-59
2024/01/11 06:40:59;;;;;;;30.88;16.17;;;166.50;2176.00;;;;;;5069007;28;20410;-58
2024/01/11 06:43:25;;;;;;;36.55;18.25;;;166.40;2176.00;;;;;;5069434;28;20029;-59
2024/01/11 06:45:52;;;;;;;24.85;12.88;;;141.60;2176.00;;;;;;5069122;28;20024;-60
2024/01/11 06:48:18;;;;;;;25.98;13.98;;;141.60;2176.00;;;;;;5056211;28;20390;-59
2024/01/11 06:50:45;;;;;;;49.10;25.83;;;141.50;2176.00;;;;;;5069049;28;20144;-60
2024/01/11 06:53:11;;;;;;;41.42;19.30;;;141.40;2176.00;;;;;;5069127;28;20107;-58
2024/01/11 06:55:37;;;;;;;40.20;20.27;;;140.90;2176.00;;;;;;5068795;28;20145;-58
2024/01/11 06:58:03;;;;;;;41.03;17.60;;;141.30;2176.00;;;;;;5068790;28;20028;-58
2024/01/11 07:00:29;;;;;;;26.87;13.67;;;141.30;2176.00;;;;;;5068937;28;20028;-60
2024/01/11 07:02:55;;;;;;;31.90;15.85;;;141.20;2176.00;;;;;;5068880;28;20028;-58
2024/01/11 07:05:21;;;;;;;36.10;22.17;;;141.20;2176.00;;;;;;5068181;28;20066;-59
2024/01/11 07:07:47;;;;;;;35.03;17.75;;;141.20;2176.00;;;;;;5068866;28;20059;-58
2024/01/11 07:10:13;;;;;;;55.35;26.35;;;141.10;2176.00;;;;;;5065496;28;20074;-58
2024/01/11 07:12:42;;;;;;;42.10;23.02;;;141.20;2176.00;;;;;;5081886;28;20035;-57
2024/01/11 07:15:08;;;;;;;35.78;18.55;;;141.30;2176.00;;;;;;5073928;28;20029;-59
2024/01/11 07:17:34;;;;;;;37.80;18.92;;;141.20;2176.00;;;;;;5077138;28;20483;-59
2024/01/11 07:20:00;;;;;;;33.80;18.17;;;141.20;2176.00;;;;;;5069059;28;20021;-60
2024/01/11 07:22:26;;;;;;;31.08;17.45;;;141.30;2176.00;;;;;;5068736;28;20094;-59
2024/01/11 07:24:52;;;;;;;38.27;18.67;;;141.20;2176.00;;;;;;5068307;28;20017;-58
2024/01/11 07:27:18;;;;;;;29.38;16.35;;;141.20;2176.00;;;;;;5078934;28;20154;-60
2024/01/11 07:29:43;;;;;;;32.53;16.42;;;141.40;2176.00;;;;;;5069932;28;20020;-59
2024/01/11 07:32:09;;;;;;;25.73;13.67;;;141.20;2176.00;;;;;;5072727;28;20871;-59
2024/01/11 07:34:36;;;;;;;27.23;14.77;;;141.40;2176.00;;;;;;5069423;28;20021;-60
2024/01/11 07:37:02;;;;;;;27.10;14.80;;;141.60;2176.00;;;;;;5067947;28;20028;-59
2024/01/11 07:39:27;;;;;;;26.50;13.87;;;141.40;2176.00;;;;;;5058461;28;20025;-59
2024/01/11 07:41:53;;;;;;;31.53;15.20;;;141.20;2176.00;;;;;;5059467;28;20081;-59
2024/01/11 07:44:20;;;;;;;28.15;16.15;;;141.10;2176.00;;;;;;5057087;28;20561;-65
2024/01/11 07:46:45;;;;;;;40.05;18.60;;;141.00;2176.00;;;;;;5056275;28;20105;-58
2024/01/11 07:49:11;;;;;;;34.58;18.15;;;141.00;2176.00;;;;;;5062179;28;20025;-59
2024/01/11 07:51:38;;;;;;;61.03;32.90;;;140.80;2176.00;;;;;;5059038;28;20040;-61
2024/01/11 07:54:04;;;;;;;33.35;21.95;;;116.10;2176.00;;;;;;5057128;28;20498;-60
2024/01/11 07:56:30;;;;;;;35.83;20.45;;;115.80;2176.00;;;;;;5063843;28;20108;-60
2024/01/11 07:58:56;;;;;;;31.98;18.27;;;115.80;2176.00;;;;;;5058435;28;20107;-59
2024/01/11 08:01:22;;;;;;;64.68;34.50;;;116.00;2176.00;;;;;;5063968;28;20033;-60
2024/01/11 08:03:48;;;;;;;58.55;32.13;;;115.70;2176.00;;;;;;5059675;28;20025;-59
2024/01/11 08:06:13;;;;;;;33.47;16.50;;;115.80;2176.00;;;;;;5063306;28;20035;-60
2024/01/11 08:08:39;;;;;;;30.08;14.95;;;115.90;2176.00;;;;;;5065965;28;20040;-60
2024/01/11 08:11:07;;;;;;;29.15;14.50;;;140.80;2176.00;;;;;;5065145;28;20487;-60
2024/01/11 08:13:34;;;;;;;32.20;18.75;;;116.10;2176.00;;;;;;5054548;28;20058;-60
2024/01/11 08:16:04;;;;;;;28.85;15.27;;;116.00;2176.00;;;;;;5068006;28;20082;-61
2024/01/11 08:18:31;;;;;;;34.80;17.10;;;115.70;2176.00;;;;;;5062104;28;20025;-60
2024/01/11 08:20:56;;;;;;;31.48;16.42;;;115.40;2176.00;;;;;;5055626;28;20382;-60
2024/01/11 08:23:23;;;;;;;25.60;14.43;;;115.20;2176.00;;;;;;5074793;28;20025;-60
2024/01/11 08:25:49;;;;;;;34.25;18.60;;;90.00;2176.00;;;;;;5079127;28;20115;-61
2024/01/11 08:28:15;;;;;;;26.70;15.05;;;64.40;2201.60;;;;;;5065000;28;20531;-59
2024/01/11 08:30:42;;;;;;;20.90;13.02;;;13.70;2201.60;;;;;;5054562;28;20132;-61
2024/01/11 08:33:08;;;;;;;25.27;14.95;;;0.80;2201.60;;;;;;5057479;28;20051;-60
2024/01/11 08:35:35;;;;;;;28.10;17.23;;;51.50;2227.20;;;;;;5077851;28;20020;-61
2024/01/11 08:38:01;;;;;;;42.17;27.55;;;77.30;2227.20;;;;;;5070662;28;20498;-61
2024/01/11 08:40:26;;;;;;;28.42;18.20;;;77.70;2227.20;;;;;;5069052;28;20049;-60
2024/01/11 08:42:52;;;;;;;59.30;40.30;;;77.20;2227.20;;;;;;5082168;28;20024;-59
2024/01/11 08:45:18;;;;;;;40.70;25.60;;;51.70;2227.20;;;;;;5071915;28;20090;-60
2024/01/11 08:47:45;;;;;;;58.95;36.55;;;25.90;2201.60;;;;;;5061399;28;20542;-61
2024/01/11 08:50:15;;;;;;;84.88;50.88;;;25.70;2201.60;;;;;;5075824;28;20086;-61
2024/01/11 08:52:42;;;;;;;49.25;32.33;;;0.90;2201.60;;;;;;5070319;28;20036;-61
2024/01/11 08:55:08;;;;;;;40.08;25.98;;;26.20;2201.60;;;;;;5070482;28;20033;-61
2024/01/11 08:57:35;;;;;;;52.15;31.70;;;51.70;2227.20;;;;;;5070324;28;20036;-61
2024/01/11 09:00:03;;;;;;;95.55;65.97;;;76.80;2227.20;;;;;;5069819;28;20021;-61
2024/01/11 09:02:29;;;;;;;130.23;92.97;;;102.50;2227.20;;;;;;5064420;28;20446;-61
2024/01/11 09:04:55;;;;;;;157.80;110.60;;;103.10;2176.00;;;;;;5060184;28;20025;-60
2024/01/11 09:07:21;;;;;;;292.85;182.85;;;128.40;2150.40;;;;;;5066253;28;20419;-59
2024/01/11 09:09:46;;;;;;;304.58;194.27;;;128.80;2099.20;;;;;;5073375;28;20021;-60
2024/01/11 09:12:12;;;;;;;308.45;203.75;;;153.80;2048.00;;;;;;5070939;28;21004;-60
2024/01/11 09:14:39;;;;;;;206.50;151.80;;;128.50;2124.80;;;;;;5062046;28;20378;-60
2024/01/11 09:17:06;;;;;;;201.13;154.15;;;128.60;2099.20;;;;;;5053788;28;20044;-61
2024/01/11 09:19:33;;;;;;;159.07;118.22;;;128.60;2099.20;;;;;;5057432;28;20031;-61
2024/01/11 09:22:00;;;;;;;101.50;77.50;;;128.70;2099.20;;;;;;5056641;28;20032;-61
2024/01/11 09:24:25;;;;;;;95.85;72.43;;;128.30;2150.40;;;;;;5059378;28;20529;-60
2024/01/11 09:26:51;;;;;;;71.53;55.50;;;153.80;2073.60;;;;;;5058119;28;20099;-60
2024/01/11 09:29:17;;;;;;;69.75;53.25;;;154.30;2022.40;;;;;;5068344;28;20394;-61
2024/01/11 09:31:43;;;;;;;66.38;52.45;;;154.40;2048.00;;;;;;5063223;28;20044;-61
2024/01/11 09:34:08;;;;;;;54.97;44.22;;;204.90;1920.00;;;;;;5064513;28;20028;-61
2024/01/11 09:36:34;;;;;;;60.13;49.40;;;230.40;1843.20;;;;;;5070140;28;20094;-59
2024/01/11 09:39:00;;;;;;;64.80;51.22;;;230.60;1792.00;;;;;;5064920;28;20021;-62
2024/01/11 09:41:27;;;;;;;66.80;52.38;;;205.20;1843.20;;;;;;5074048;28;20045;-60
2024/01/11 09:43:55;;;;;;;68.15;53.35;;;179.70;1894.40;;;;;;5059320;28;20500;-60
2024/01/11 09:46:23;;;;;;;63.10;49.40;;;179.70;1945.60;;;;;;5068294;28;20033;-61
2024/01/11 09:48:50;;;;;;;73.07;52.50;;;179.30;1945.60;;;;;;5056930;28;20040;-59
2024/01/11 09:51:16;;;;;;;103.70;68.18;;;154.20;1971.20;;;;;;5062046;28;20078;-60
2024/01/11 09:53:42;;;;;;;116.25;76.88;;;128.60;2048.00;;;;;;5056367;28;20456;-59
2024/01/11 09:56:09;;;;;;;172.68;121.75;;;102.40;2176.00;;;;;;5063888;28;20506;-61
2024/01/11 09:58:39;;;;;;;173.10;111.57;;;76.80;2227.20;;;;;;5053638;28;20482;-60
2024/01/11 10:01:12;;;;;;;152.23;97.28;;;51.40;2227.20;;;;;;5058849;28;20033;-59
2024/01/11 10:03:40;;;;;;;160.35;100.03;;;51.70;2227.20;;;;;;5053203;28;20059;-60
2024/01/11 10:06:07;;;;;;;167.68;101.20;;;51.20;2227.20;;;;;;5062373;28;20364;-60
2024/01/11 10:08:33;;;;;;;165.02;99.30;;;26.20;2201.60;;;;;;5078753;28;20023;-61
2024/01/11 10:10:59;;;;;;;176.23;106.97;;;51.20;2227.20;;;;;;5068890;28;20078;-60
2024/01/11 10:13:29;;;;;;;357.58;213.57;;;26.20;2201.60;;;;;;5069351;28;20024;-61
2024/01/11 10:16:15;;;;;;;209.85;124.32;;;26.20;2201.60;;;;;;5069731;28;20024;-61
2024/01/11 10:18:41;;;;;;;136.48;85.60;;;25.80;2201.60;;;;;;5069143;28;20032;-61
2024/01/11 10:21:09;;;;;;;152.73;91.63;;;25.70;2201.60;;;;;;5069340;28;20134;-60
2024/01/11 10:23:36;;;;;;;130.43;80.35;;;0.90;2201.60;;;;;;5069644;28;20028;-61
2024/01/11 10:26:02;;;;;;;138.70;85.40;;;26.00;2201.60;;;;;;5066188;28;20029;-60
2024/01/11 10:28:28;;;;;;;142.52;87.85;;;25.70;2201.60;;;;;;5073457;28;20475;-61
2024/01/11 10:30:55;;;;;;;144.05;83.75;;;25.60;2201.60;;;;;;5068726;28;20029;-60
2024/01/11 10:33:22;;;;;;;152.05;90.93;;;0.90;2201.60;;;;;;5069009;28;20032;-61
2024/01/11 10:35:51;;;;;;;140.45;84.70;;;0.80;2201.60;;;;;;5069151;28;20490;-61
2024/01/11 10:38:17;;;;;;;139.80;87.90;;;0.60;2201.60;;;;;;5069454;28;20036;-60
2024/01/11 10:40:44;;;;;;;130.93;85.00;;;0.80;2201.60;;;;;;5068743;28;20044;-60
2024/01/11 10:43:15;;;;;;;136.82;86.53;;;0.70;2201.60;;;;;;5069239;28;20028;-60
2024/01/11 10:45:42;;;;;;;147.23;89.03;;;0.80;2201.60;;;;;;5068670;28;20013;-61
2024/01/11 10:48:14;;;;;;;126.30;82.72;;;25.60;2201.60;;;;;;5069061;28;20104;-61
2024/01/11 10:50:52;;;;;;;152.60;94.15;;;0.50;2201.60;;;;;;5068464;28;20025;-61
2024/01/11 10:53:46;;;;;;;140.27;87.88;;;0.60;2201.60;;;;;;5068986;28;20471;-60
2024/01/11 10:56:15;;;;;;;160.88;98.40;;;0.30;2201.60;;;;;;5059257;28;20029;-60
2024/01/11 10:58:42;;;;;;;155.38;99.18;;;0.40;2201.60;;;;;;5068700;28;20471;-60
2024/01/11 11:01:10;;;;;;;142.93;89.03;;;0.50;2201.60;;;;;;5069119;28;20032;-60
2024/01/11 11:03:37;;;;;;;162.15;97.78;;;0.30;2201.60;;;;;;5069151;28;20447;-60
2024/01/11 11:06:08;;;;;;;166.35;103.80;;;0.80;2201.60;;;;;;5072359;28;20040;-60
2024/01/11 11:08:34;;;;;;;197.10;105.45;;;0.60;2201.60;;;;;;5072568;28;20490;-60
2024/01/11 11:11:04;;;;;;;178.30;107.68;;;0.30;2201.60;;;;;;5072336;28;20047;-60
2024/01/11 11:13:31;;;;;;;169.98;100.80;;;0.30;2201.60;;;;;;5072424;28;20032;-61
2024/01/11 11:15:57;;;;;;;153.90;95.28;;;0.30;2201.60;;;;;;5072901;28;20021;-59
2024/01/11 11:18:24;;;;;;;161.65;100.90;;;0.80;2201.60;;;;;;5072536;28;20023;-61
2024/01/11 11:20:50;;;;;;;138.90;88.82;;;0.70;2201.60;;;;;;5072344;28;20020;-60
2024/01/11 11:23:18;;;;;;;153.02;88.13;;;0.60;2201.60;;;;;;5072853;28;20059;-60
2024/01/11 11:25:48;;;;;;;133.00;85.85;;;0.70;2201.60;;;;;;5072653;28;20078;-61
2024/01/11 11:28:18;;;;;;;132.07;80.45;;;0.50;2201.60;;;;;;5054288;28;20039;-60
2024/01/11 11:30:47;;;;;;;134.15;75.13;;;0.40;2201.60;;;;;;5071923;28;20056;-60
2024/01/11 11:33:17;;;;;;;144.80;90.47;;;0.40;2201.60;;;;;;5071996;28;20040;-61
2024/01/11 11:35:45;;;;;;;142.27;86.95;;;0.40;2201.60;;;;;;5071897;28;20074;-60
2024/01/11 11:38:22;;;;;;;121.93;75.93;;;0.40;2201.60;;;;;;5071894;28;20016;-60
2024/01/11 11:40:50;;;;;;;127.38;78.35;;;0.30;2201.60;;;;;;5071435;28;20490;-60
2024/01/11 11:43:17;;;;;;;134.35;84.15;;;0.40;2201.60;;;;;;5072087;28;20033;-60
2024/01/11 11:45:45;;;;;;;169.05;96.80;;;0.70;2201.60;;;;;;5072535;28;20032;-61
2024/01/11 11:48:32;;;;;;;151.90;87.18;;;0.60;2201.60;;;;;;5072106;28;20062;-61
2024/01/11 11:51:10;;;;;;;141.20;80.47;;;0.60;2201.60;;;;;;5071777;28;20435;-60
2024/01/11 11:53:43;;;;;;;172.70;99.38;;;0.60;2201.60;;;;;;5072275;28;20438;-60
2024/01/11 11:56:10;;;;;;;152.07;93.18;;;0.50;2201.60;;;;;;5053842;28;20106;-60
2024/01/11 11:58:36;;;;;;;128.63;75.50;;;0.60;2201.60;;;;;;5072042;28;20028;-61